Time;durP1;ratioP1;P1;durP2;ratioP2;P2;SDS_P1;SDS_P2;PMS_P1;PMS_P2;Temp;Humidity;BMP_temperature;BMP_pressure;BME280_temperature;BME280_humidity;BME280_pressure;Samples;Min_cycle;Max_cycle;Signal;HPM_P1;HPM_P2
2021/05/20 00:00:49;;;;;;;9.90;6.33;;;;;;;;;;5010911;28;20030;-73
2021/05/20 00:03:15;;;;;;;8.63;5.77;;;;;;;;;;5009421;28;20034;-74
2021/05/20 00:05:41;;;;;;;8.93;6.00;;;;;;;;;;5009212;28;20045;-73
2021/05/20 00:08:07;;;;;;;9.73;5.90;;;;;;;;;;5009343;28;20030;-73
2021/05/20 00:10:32;;;;;;;10.13;6.20;;;;;;;;;;5009336;28;20041;-75
2021/05/20 00:12:58;;;;;;;8.20;5.63;;;;;;;;;;5011089;28;20064;-74
2021/05/20 00:15:23;;;;;;;7.27;5.40;;;;;;;;;;5010698;28;20251;-73
2021/05/20 00:17:49;;;;;;;7.53;5.27;;;;;;;;;;5009865;28;20061;-74
2021/05/20 00:20:15;;;;;;;7.70;5.40;;;;;;;;;;5010159;28;20026;-73
2021/05/20 00:22:41;;;;;;;8.77;5.97;;;;;;;;;;5009828;28;20382;-74
2021/05/20 00:25:07;;;;;;;8.43;5.83;;;;;;;;;;5011255;28;20368;-74
2021/05/20 00:27:33;;;;;;;9.87;5.93;;;;;;;;;;5009656;28;20112;-74
2021/05/20 00:29:59;;;;;;;7.37;5.40;;;;;;;;;;5009438;28;20026;-73
2021/05/20 00:32:24;;;;;;;7.43;5.30;;;;;;;;;;5009100;28;20117;-73
2021/05/20 00:34:50;;;;;;;7.47;4.90;;;;;;;;;;5009340;28;20551;-73
2021/05/20 00:37:16;;;;;;;9.70;6.10;;;;;;;;;;5010478;28;20540;-74
2021/05/20 00:39:42;;;;;;;9.07;5.30;;;;;;;;;;5010661;28;20120;-75
2021/05/20 00:42:11;;;;;;;5.67;4.67;;;;;;;;;;5009387;28;20180;-73
2021/05/20 00:44:57;;;;;;;7.67;5.43;;;;;;;;;;5008942;28;20064;-72
2021/05/20 00:47:26;;;;;;;8.70;4.80;;;;;;;;;;5010383;28;20080;-72
2021/05/20 00:49:53;;;;;;;7.13;5.13;;;;;;;;;;5010644;28;20026;-74
2021/05/20 00:52:19;;;;;;;6.70;4.87;;;;;;;;;;4977121;28;20462;-74
2021/05/20 00:54:49;;;;;;;11.07;4.60;;;;;;;;;;5009107;28;20410;-72
2021/05/20 00:57:15;;;;;;;6.73;4.23;;;;;;;;;;5010913;28;20044;-73
2021/05/20 00:59:41;;;;;;;7.43;4.80;;;;;;;;;;5008989;28;20037;-72
2021/05/20 01:02:09;;;;;;;6.37;4.27;;;;;;;;;;5009119;28;20036;-74
2021/05/20 01:04:34;;;;;;;10.53;4.37;;;;;;;;;;5010298;28;20026;-73
2021/05/20 01:06:59;;;;;;;8.20;4.70;;;;;;;;;;5009165;28;20041;-73
2021/05/20 01:09:26;;;;;;;11.77;4.50;;;;;;;;;;5009936;28;20108;-74
2021/05/20 01:11:51;;;;;;;7.20;4.37;;;;;;;;;;5008794;28;20393;-73
2021/05/20 01:14:17;;;;;;;7.70;4.80;;;;;;;;;;5008557;28;20033;-74
2021/05/20 01:16:47;;;;;;;7.53;4.43;;;;;;;;;;5010079;28;20049;-74
2021/05/20 01:19:13;;;;;;;8.33;4.53;;;;;;;;;;5008875;28;20060;-74
2021/05/20 01:21:40;;;;;;;13.57;5.33;;;;;;;;;;5010073;28;20030;-73
2021/05/20 01:24:07;;;;;;;10.43;5.03;;;;;;;;;;5010109;28;20095;-73
2021/05/20 01:26:37;;;;;;;7.57;4.70;;;;;;;;;;5008182;28;20029;-73
2021/05/20 01:29:07;;;;;;;9.57;5.93;;;;;;;;;;5008498;28;20061;-73
2021/05/20 01:31:34;;;;;;;5.80;4.87;;;;;;;;;;5007740;28;20424;-73
2021/05/20 01:34:00;;;;;;;10.17;5.67;;;;;;;;;;5009457;28;20030;-73
2021/05/20 01:36:26;;;;;;;9.00;5.17;;;;;;;;;;5008110;28;20036;-73
2021/05/20 01:38:53;;;;;;;6.83;5.03;;;;;;;;;;5008007;28;20115;-72
2021/05/20 01:41:19;;;;;;;10.43;5.43;;;;;;;;;;5010055;28;20086;-73
2021/05/20 01:43:44;;;;;;;8.80;5.17;;;;;;;;;;4991894;28;20081;-72
2021/05/20 01:46:11;;;;;;;8.67;6.03;;;;;;;;;;5009797;28;20034;-73
2021/05/20 01:48:41;;;;;;;7.77;5.60;;;;;;;;;;5009003;28;20029;-73
2021/05/20 01:51:12;;;;;;;9.20;5.77;;;;;;;;;;5008957;28;20033;-74
2021/05/20 01:53:43;;;;;;;8.60;5.53;;;;;;;;;;5008059;28;20069;-73
2021/05/20 01:56:09;;;;;;;7.73;5.90;;;;;;;;;;5005683;28;20058;-73
2021/05/20 01:58:37;;;;;;;7.80;5.00;;;;;;;;;;5008360;28;20298;-74
2021/05/20 02:01:04;;;;;;;6.73;4.77;;;;;;;;;;5008056;28;20033;-73
2021/05/20 02:03:30;;;;;;;7.73;5.23;;;;;;;;;;5007811;28;20120;-72
2021/05/20 02:06:01;;;;;;;7.60;4.80;;;;;;;;;;5008190;28;20350;-73
2021/05/20 02:08:31;;;;;;;7.67;5.20;;;;;;;;;;5007982;28;20393;-74
2021/05/20 02:10:57;;;;;;;7.47;4.90;;;;;;;;;;5008062;28;20029;-74
2021/05/20 02:13:23;;;;;;;8.57;5.67;;;;;;;;;;5007897;28;20025;-73
2021/05/20 02:15:49;;;;;;;7.67;5.37;;;;;;;;;;5007561;28;20390;-72
2021/05/20 02:18:15;;;;;;;9.43;5.57;;;;;;;;;;5008724;28;20036;-73
2021/05/20 02:20:41;;;;;;;9.17;5.80;;;;;;;;;;5008567;28;20462;-73
2021/05/20 02:23:06;;;;;;;11.87;5.80;;;;;;;;;;5010013;28;20112;-73
2021/05/20 02:25:33;;;;;;;8.90;6.50;;;;;;;;;;5009560;28;20037;-73
2021/05/20 02:27:59;;;;;;;9.47;6.00;;;;;;;;;;5007945;28;20116;-73
2021/05/20 02:30:25;;;;;;;8.53;5.67;;;;;;;;;;5008097;28;20033;-72
2021/05/20 02:32:51;;;;;;;7.43;5.67;;;;;;;;;;4991048;28;20038;-73
2021/05/20 02:35:17;;;;;;;8.63;5.90;;;;;;;;;;5008868;28;20394;-73
2021/05/20 02:37:42;;;;;;;7.27;5.83;;;;;;;;;;5008251;28;20053;-74
2021/05/20 02:40:10;;;;;;;9.93;6.63;;;;;;;;;;5007571;28;20029;-73
2021/05/20 02:42:37;;;;;;;7.83;5.83;;;;;;;;;;5007639;28;20091;-73
2021/05/20 02:45:08;;;;;;;10.37;6.53;;;;;;;;;;5009270;28;20343;-73
2021/05/20 02:47:35;;;;;;;9.38;5.80;;;;;;;;;;5010765;28;20088;-73
2021/05/20 02:50:00;;;;;;;9.13;5.33;;;;;;;;;;5011150;28;20490;-73
2021/05/20 02:52:26;;;;;;;12.77;5.93;;;;;;;;;;5011375;28;20033;-73
2021/05/20 02:54:52;;;;;;;9.37;5.53;;;;;;;;;;5010967;28;20030;-73
2021/05/20 02:57:17;;;;;;;6.97;5.60;;;;;;;;;;5012673;28;20470;-72
2021/05/20 02:59:43;;;;;;;12.23;5.63;;;;;;;;;;5010915;28;20393;-74
2021/05/20 03:02:09;;;;;;;11.83;7.17;;;;;;;;;;5011302;28;20022;-73
2021/05/20 03:04:35;;;;;;;12.57;7.27;;;;;;;;;;5014072;28;20025;-73
2021/05/20 03:07:03;;;;;;;21.33;6.93;;;;;;;;;;5012955;28;20037;-73
2021/05/20 03:09:28;;;;;;;9.57;6.47;;;;;;;;;;5012095;28;20025;-73
2021/05/20 03:11:57;;;;;;;9.37;5.97;;;;;;;;;;5010732;28;20025;-73
2021/05/20 03:14:26;;;;;;;12.00;6.33;;;;;;;;;;5010930;28;20061;-74
2021/05/20 03:16:52;;;;;;;9.37;6.17;;;;;;;;;;4994136;28;20104;-74
2021/05/20 03:19:18;;;;;;;15.23;6.00;;;;;;;;;;5011770;28;20053;-72
2021/05/20 03:21:44;;;;;;;12.03;6.90;;;;;;;;;;5010540;28;20104;-73
2021/05/20 03:24:10;;;;;;;15.63;5.60;;;;;;;;;;5010543;28;20026;-73
2021/05/20 03:26:35;;;;;;;8.37;5.83;;;;;;;;;;5011897;28;20065;-73
2021/05/20 03:29:01;;;;;;;6.03;5.03;;;;;;;;;;5011178;28;20057;-73
2021/05/20 03:31:26;;;;;;;10.33;5.80;;;;;;;;;;5011734;28;20457;-74
2021/05/20 03:33:52;;;;;;;11.07;5.83;;;;;;;;;;5010234;28;20072;-74
2021/05/20 03:36:19;;;;;;;5.47;4.73;;;;;;;;;;5010445;28;20088;-74
2021/05/20 03:38:44;;;;;;;9.93;5.90;;;;;;;;;;5011198;28;20392;-73
2021/05/20 03:41:10;;;;;;;15.37;5.47;;;;;;;;;;5011688;28;20026;-74
2021/05/20 03:43:37;;;;;;;12.40;6.60;;;;;;;;;;4994204;28;20655;-74
2021/05/20 03:46:03;;;;;;;12.03;5.97;;;;;;;;;;5010358;28;20069;-73
2021/05/20 03:48:29;;;;;;;10.80;6.30;;;;;;;;;;5010193;28;20030;-73
2021/05/20 03:50:56;;;;;;;10.93;5.63;;;;;;;;;;5011100;28;20581;-74
2021/05/20 03:53:21;;;;;;;9.33;5.47;;;;;;;;;;5010471;28;20026;-74
2021/05/20 03:55:48;;;;;;;10.13;6.57;;;;;;;;;;5009731;28;20394;-73
2021/05/20 03:58:15;;;;;;;9.70;5.93;;;;;;;;;;5009923;28;20033;-73
2021/05/20 04:00:41;;;;;;;8.67;5.37;;;;;;;;;;5009551;28;20034;-73
2021/05/20 04:03:06;;;;;;;10.17;5.30;;;;;;;;;;5011320;28;20022;-74
2021/05/20 04:05:32;;;;;;;11.23;5.77;;;;;;;;;;5011392;28;20466;-74
2021/05/20 04:07:58;;;;;;;9.93;5.70;;;;;;;;;;5009233;28;20038;-73
2021/05/20 04:10:24;;;;;;;8.17;5.23;;;;;;;;;;5011160;28;20105;-73
2021/05/20 04:12:50;;;;;;;14.23;5.67;;;;;;;;;;5009320;28;20030;-73
2021/05/20 04:15:17;;;;;;;10.00;6.50;;;;;;;;;;5011102;28;20474;-74
2021/05/20 04:17:43;;;;;;;8.80;6.00;;;;;;;;;;4993227;28;20517;-73
2021/05/20 04:20:11;;;;;;;9.97;6.47;;;;;;;;;;5009841;28;20021;-74
2021/05/20 04:22:36;;;;;;;11.70;6.47;;;;;;;;;;5011115;28;20034;-74
2021/05/20 04:25:03;;;;;;;20.77;6.57;;;;;;;;;;5009446;28;20022;-74
2021/05/20 04:27:28;;;;;;;10.07;6.03;;;;;;;;;;5009330;28;20030;-75
2021/05/20 04:29:54;;;;;;;10.37;5.37;;;;;;;;;;5010622;28;20115;-74
2021/05/20 04:32:19;;;;;;;8.93;5.67;;;;;;;;;;5009417;28;20040;-73
2021/05/20 04:34:45;;;;;;;8.83;5.33;;;;;;;;;;5009017;28;20022;-74
2021/05/20 04:37:11;;;;;;;8.63;5.47;;;;;;;;;;5009050;28;20494;-73
2021/05/20 04:39:36;;;;;;;13.50;5.50;;;;;;;;;;5009324;28;20454;-73
2021/05/20 04:42:03;;;;;;;11.43;6.00;;;;;;;;;;5009325;28;20089;-73
2021/05/20 04:44:28;;;;;;;10.77;5.90;;;;;;;;;;5009873;28;20250;-73
2021/05/20 04:46:54;;;;;;;9.97;6.20;;;;;;;;;;5008848;28;20087;-72
2021/05/20 04:49:19;;;;;;;11.00;5.70;;;;;;;;;;5010345;28;20041;-74
2021/05/20 04:51:45;;;;;;;8.13;5.33;;;;;;;;;;5008945;28;20041;-73
2021/05/20 04:54:10;;;;;;;8.10;4.87;;;;;;;;;;5009016;28;20077;-73
2021/05/20 04:56:36;;;;;;;6.97;4.70;;;;;;;;;;5008872;28;20057;-74
2021/05/20 04:59:02;;;;;;;8.13;5.13;;;;;;;;;;5010264;28;20085;-73
2021/05/20 05:01:28;;;;;;;7.90;4.83;;;;;;;;;;4992214;28;20030;-73
2021/05/20 05:03:53;;;;;;;5.33;4.50;;;;;;;;;;5009886;28;20060;-73
2021/05/20 05:06:19;;;;;;;6.60;4.57;;;;;;;;;;5008944;28;20405;-73
2021/05/20 05:08:44;;;;;;;6.20;4.47;;;;;;;;;;5007757;28;20065;-72
2021/05/20 05:11:11;;;;;;;8.43;4.40;;;;;;;;;;5009746;28;20550;-73
2021/05/20 05:13:36;;;;;;;7.10;4.40;;;;;;;;;;5008426;28;20030;-74
2021/05/20 05:16:02;;;;;;;8.83;4.10;;;;;;;;;;5008313;28;20536;-75
2021/05/20 05:18:28;;;;;;;7.90;4.53;;;;;;;;;;5009875;28;20032;-73
2021/05/20 05:20:54;;;;;;;11.53;5.00;;;;;;;;;;5007942;28;20068;-74
2021/05/20 05:23:20;;;;;;;8.00;4.60;;;;;;;;;;5009646;28;20030;-74
2021/05/20 05:25:49;;;;;;;7.47;5.03;;;;;;;;;;5008298;28;20041;-74
2021/05/20 05:28:15;;;;;;;6.47;4.97;;;;;;;;;;5007885;28;20475;-74
2021/05/20 05:30:41;;;;;;;12.30;5.80;;;;;;;;;;5008022;28;20052;-75
2021/05/20 05:33:06;;;;;;;6.60;5.07;;;;;;;;;;5009468;28;20541;-74
2021/05/20 05:35:32;;;;;;;9.03;6.13;;;;;;;;;;5007347;28;20467;-75
2021/05/20 05:37:57;;;;;;;8.13;4.30;;;;;;;;;;5007056;28;20212;-73
2021/05/20 05:40:24;;;;;;;9.23;4.80;;;;;;;;;;5009210;28;20029;-74
2021/05/20 05:42:50;;;;;;;17.43;6.40;;;;;;;;;;5007350;28;20485;-74
2021/05/20 05:45:16;;;;;;;9.43;5.00;;;;;;;;;;5007912;28;20022;-75
2021/05/20 05:47:41;;;;;;;8.13;4.27;;;;;;;;;;5007268;28;20033;-75
2021/05/20 05:50:12;;;;;;;6.90;4.80;;;;;;;;;;5008754;28;20022;-74
2021/05/20 05:52:38;;;;;;;7.20;4.65;;;;;;;;;;5008958;28;20471;-74
2021/05/20 05:55:05;;;;;;;7.50;4.27;;;;;;;;;;5007732;28;20033;-73
2021/05/20 05:57:31;;;;;;;15.47;7.23;;;;;;;;;;5008356;28;20026;-74
2021/05/20 05:59:56;;;;;;;10.77;5.70;;;;;;;;;;5025094;28;20057;-74
2021/05/20 06:02:23;;;;;;;6.23;4.37;;;;;;;;;;5010716;28;20029;-75
2021/05/20 06:04:49;;;;;;;6.20;3.77;;;;;;;;;;4994589;28;20026;-76
2021/05/20 06:07:15;;;;;;;8.53;4.37;;;;;;;;;;4985697;28;20930;-76
2021/05/20 06:09:41;;;;;;;9.63;3.63;;;;;;;;;;5007539;28;20021;-74
2021/05/20 06:12:08;;;;;;;5.43;3.73;;;;;;;;;;5004734;28;20081;-75
2021/05/20 06:14:37;;;;;;;8.63;3.57;;;;;;;;;;4990819;28;20027;-76
2021/05/20 06:17:02;;;;;;;5.83;3.97;;;;;;;;;;4997596;28;20189;-75
2021/05/20 06:19:28;;;;;;;9.57;3.87;;;;;;;;;;4991127;28;20503;-75
2021/05/20 06:21:53;;;;;;;6.30;3.97;;;;;;;;;;5007346;28;20101;-75
2021/05/20 06:24:19;;;;;;;7.70;4.00;;;;;;;;;;5010042;28;20034;-74
2021/05/20 06:26:46;;;;;;;6.17;4.10;;;;;;;;;;5010970;28;20091;-75
2021/05/20 06:29:11;;;;;;;5.97;2.93;;;;;;;;;;5009521;28;20034;-74
2021/05/20 06:31:37;;;;;;;5.40;3.40;;;;;;;;;;5011046;28;20026;-74
2021/05/20 06:34:03;;;;;;;5.90;3.40;;;;;;;;;;5010983;28;20026;-74
2021/05/20 06:36:28;;;;;;;7.97;4.07;;;;;;;;;;5005985;28;20387;-75
2021/05/20 06:38:54;;;;;;;6.70;3.30;;;;;;;;;;4997586;28;20086;-75
2021/05/20 06:41:20;;;;;;;8.00;3.70;;;;;;;;;;4996445;28;20193;-75
2021/05/20 06:43:46;;;;;;;6.40;3.47;;;;;;;;;;5004597;28;20029;-74
2021/05/20 06:46:12;;;;;;;5.20;3.47;;;;;;;;;;5007696;28;20042;-75
2021/05/20 06:48:37;;;;;;;5.93;3.40;;;;;;;;;;4995796;28;20053;-74
2021/05/20 06:51:04;;;;;;;6.57;3.43;;;;;;;;;;4992704;28;20034;-76
2021/05/20 06:53:31;;;;;;;6.17;3.53;;;;;;;;;;5012030;28;20029;-75
2021/05/20 06:56:03;;;;;;;5.00;3.23;;;;;;;;;;5013500;28;20448;-75
2021/05/20 07:01:13;;;;;;;4.67;2.83;;;;;;;;;;5000007;28;20060;-75
2021/05/20 07:03:38;;;;;;;6.97;3.90;;;;;;;;;;5010217;28;20022;-74
2021/05/20 07:06:04;;;;;;;5.97;3.37;;;;;;;;;;4995616;28;20028;-75
2021/05/20 07:08:30;;;;;;;9.67;3.53;;;;;;;;;;4988971;28;20038;-74
2021/05/20 07:10:57;;;;;;;5.07;3.00;;;;;;;;;;5009342;28;20034;-74
2021/05/20 07:13:23;;;;;;;6.80;3.70;;;;;;;;;;5004760;28;20030;-78
2021/05/20 07:15:49;;;;;;;5.23;3.63;;;;;;;;;;5012327;28;20029;-74
2021/05/20 07:18:16;;;;;;;6.93;4.53;;;;;;;;;;5005649;28;20029;-76
2021/05/20 07:20:42;;;;;;;11.60;3.23;;;;;;;;;;4999054;28;20034;-76
2021/05/20 07:23:15;;;;;;;3.43;3.00;;;;;;;;;;4998744;28;20037;-76
2021/05/20 07:25:43;;;;;;;3.73;2.70;;;;;;;;;;5006293;28;20520;-74
2021/05/20 07:28:09;;;;;;;4.67;3.10;;;;;;;;;;5006801;28;20030;-75
2021/05/20 07:30:37;;;;;;;8.10;3.90;;;;;;;;;;5008251;28;20037;-76
2021/05/20 07:33:04;;;;;;;7.23;4.23;;;;;;;;;;5004142;28;20038;-77
2021/05/20 07:35:29;;;;;;;7.07;3.20;;;;;;;;;;5009048;28;20026;-76
2021/05/20 07:37:55;;;;;;;4.03;2.77;;;;;;;;;;5003503;28;20056;-76
2021/05/20 07:40:22;;;;;;;5.70;2.33;;;;;;;;;;5005123;28;20497;-76
2021/05/20 07:42:48;;;;;;;4.43;2.10;;;;;;;;;;5011161;28;20036;-74
2021/05/20 07:45:16;;;;;;;1.83;1.73;;;;;;;;;;5007738;28;20026;-74
2021/05/20 07:47:43;;;;;;;3.03;1.83;;;;;;;;;;5006204;28;20037;-74
2021/05/20 07:50:11;;;;;;;3.87;1.97;;;;;;;;;;5006006;28;20037;-75
2021/05/20 07:52:36;;;;;;;2.37;1.97;;;;;;;;;;5004860;28;20486;-75
2021/05/20 07:55:03;;;;;;;3.03;1.77;;;;;;;;;;5007748;28;20048;-75
2021/05/20 07:57:29;;;;;;;2.03;1.80;;;;;;;;;;4998849;28;20056;-73
2021/05/20 07:59:54;;;;;;;2.30;1.90;;;;;;;;;;5014222;28;20373;-74
2021/05/20 08:04:59;;;;;;;2.75;2.25;;;;;;;;;;5019563;28;20038;-75
2021/05/20 08:07:50;;;;;;;5.43;1.88;;;;;;;;;;5006990;28;20037;-75
2021/05/20 08:11:02;;;;;;;3.70;2.17;;;;;;;;;;5005578;28;20044;-75
2021/05/20 08:12:59;;;;;;;4.40;2.42;;;;;;;;;;5011860;28;20042;-74
2021/05/20 08:15:27;;;;;;;4.82;3.15;;;;;;;;;;5017935;28;20104;-75
2021/05/20 08:17:53;;;;;;;3.05;2.40;;;;;;;;;;4991243;28;20040;-75
2021/05/20 08:20:20;;;;;;;3.15;2.20;;;;;;;;;;4998534;28;20041;-75
2021/05/20 08:22:46;;;;;;;4.60;2.25;;;;;;;;;;5004193;28;20200;-75
2021/05/20 08:25:12;;;;;;;3.58;2.20;;;;;;;;;;5000558;28;20695;-74
2021/05/20 08:27:38;;;;;;;4.07;2.45;;;;;;;;;;5008939;28;20531;-77
2021/05/20 08:30:06;;;;;;;2.78;2.45;;;;;;;;;;5001520;28;20517;-76
2021/05/20 08:32:32;;;;;;;3.33;2.38;;;;;;;;;;5002767;28;20056;-75
2021/05/20 08:34:58;;;;;;;4.57;2.40;;;;;;;;;;5003599;28;20042;-75
2021/05/20 08:37:26;;;;;;;7.30;2.40;;;;;;;;;;4993562;28;20062;-75
2021/05/20 08:39:51;;;;;;;2.35;2.15;;;;;;;;;;5003319;28;20045;-76
2021/05/20 08:42:18;;;;;;;3.78;2.00;;;;;;;;;;5007885;28;20038;-75
2021/05/20 08:44:44;;;;;;;4.45;2.65;;;;;;;;;;5001925;28;20045;-74
2021/05/20 08:47:12;;;;;;;5.20;3.15;;;;;;;;;;4998498;28;20033;-76
2021/05/20 08:49:39;;;;;;;4.30;1.80;;;;;;;;;;4993999;28;20140;-76
2021/05/20 08:52:06;;;;;;;8.30;2.47;;;;;;;;;;5000835;28;20041;-78
2021/05/20 08:54:31;;;;;;;2.65;2.10;;;;;;;;;;5008526;28;20478;-76
2021/05/20 08:56:58;;;;;;;2.70;1.60;;;;;;;;;;5003429;28;20128;-75
2021/05/20 08:59:25;;;;;;;3.22;1.52;;;;;;;;;;4994637;28;20038;-75
2021/05/20 09:01:51;;;;;;;2.70;1.65;;;;;;;;;;4996684;28;20037;-76
2021/05/20 09:04:18;;;;;;;1.73;1.63;;;;;;;;;;5002277;28;20045;-76
2021/05/20 09:06:51;;;;;;;2.70;1.75;;;;;;;;;;4986068;28;20069;-74
2021/05/20 09:09:20;;;;;;;2.25;1.60;;;;;;;;;;4997457;28;20045;-78
2021/05/20 09:11:57;;;;;;;2.70;1.50;;;;;;;;;;4997325;28;20042;-76
2021/05/20 09:14:41;;;;;;;1.55;1.40;;;;;;;;;;4995348;28;20140;-74
2021/05/20 09:17:20;;;;;;;1.95;1.75;;;;;;;;;;5004016;28;20033;-75
2021/05/20 09:20:01;;;;;;;2.50;2.30;;;;;;;;;;4997109;28;20068;-75
2021/05/20 09:22:29;;;;;;;2.95;1.80;;;;;;;;;;5008179;28;20057;-76
2021/05/20 09:24:57;;;;;;;2.95;1.63;;;;;;;;;;5000583;28;20034;-76
2021/05/20 09:27:26;;;;;;;1.75;1.55;;;;;;;;;;5002668;28;20057;-77
2021/05/20 09:30:16;;;;;;;2.25;2.05;;;;;;;;;;4998978;28;20482;-75
2021/05/20 09:32:48;;;;;;;3.58;1.63;;;;;;;;;;4998289;28;20510;-75
2021/05/20 09:35:18;;;;;;;3.28;1.60;;;;;;;;;;5005406;28;20147;-76
2021/05/20 09:37:53;;;;;;;3.80;2.20;;;;;;;;;;5006718;28;20046;-75
2021/05/20 09:40:23;;;;;;;3.35;1.67;;;;;;;;;;5001714;28;20029;-75
2021/05/20 09:42:50;;;;;;;2.80;1.88;;;;;;;;;;4981105;28;20049;-75
2021/05/20 09:45:20;;;;;;;2.75;1.50;;;;;;;;;;4999812;28;20034;-76
2021/05/20 09:47:49;;;;;;;3.53;2.35;;;;;;;;;;4999402;28;20121;-76
2021/05/20 09:50:21;;;;;;;4.95;2.10;;;;;;;;;;5005480;28;20029;-77
2021/05/20 09:52:49;;;;;;;2.28;2.05;;;;;;;;;;5018568;28;20033;-76
2021/05/20 09:55:23;;;;;;;1.95;1.85;;;;;;;;;;4994570;28;20120;-78
2021/05/20 09:57:50;;;;;;;2.67;1.80;;;;;;;;;;5013704;28;20044;-75
2021/05/20 10:00:22;;;;;;;5.43;1.52;;;;;;;;;;5001671;28;20033;-76
2021/05/20 10:03:03;;;;;;;2.75;1.52;;;;;;;;;;5010769;28;20037;-75
2021/05/20 10:05:38;;;;;;;2.47;1.42;;;;;;;;;;5010724;28;20113;-75
2021/05/20 10:08:07;;;;;;;1.20;1.10;;;;;;;;;;4996930;28;20030;-76
2021/05/20 10:10:39;;;;;;;6.45;4.68;;;;;;;;;;5000105;28;20030;-74
2021/05/20 10:13:09;;;;;;;1.70;1.50;;;;;;;;;;5006982;28;20033;-73
2021/05/20 10:15:37;;;;;;;3.67;1.73;;;;;;;;;;5017808;28;20497;-73
2021/05/20 10:18:09;;;;;;;1.52;1.30;;;;;;;;;;5006255;28;20069;-76
2021/05/20 10:20:36;;;;;;;3.35;1.38;;;;;;;;;;4997402;28;20042;-73
2021/05/20 10:23:07;;;;;;;1.13;0.98;;;;;;;;;;5007464;28;20060;-74
2021/05/20 10:25:35;;;;;;;2.47;1.60;;;;;;;;;;5001531;28;20026;-73
2021/05/20 10:28:01;;;;;;;0.77;0.77;;;;;;;;;;5001320;28;20038;-75
2021/05/20 10:30:28;;;;;;;1.10;0.73;;;;;;;;;;5003044;28;20062;-74
2021/05/20 10:32:58;;;;;;;2.13;0.95;;;;;;;;;;5012147;28;20058;-73
2021/05/20 10:35:51;;;;;;;2.13;1.17;;;;;;;;;;5014623;28;20140;-74
2021/05/20 10:38:37;;;;;;;3.10;1.05;;;;;;;;;;5003511;28;20034;-76
2021/05/20 10:41:15;;;;;;;3.35;1.13;;;;;;;;;;5005180;28;20091;-74
2021/05/20 10:43:43;;;;;;;6.43;0.73;;;;;;;;;;5002977;28;20033;-75
2021/05/20 10:46:12;;;;;;;1.60;0.80;;;;;;;;;;5002560;28;20398;-74
2021/05/20 10:48:49;;;;;;;4.57;0.85;;;;;;;;;;5008888;28;20109;-74
2021/05/20 10:51:23;;;;;;;2.13;0.70;;;;;;;;;;5015686;28;20112;-75
2021/05/20 10:54:04;;;;;;;3.83;0.70;;;;;;;;;;5025738;28;20030;-77
2021/05/20 10:56:32;;;;;;;0.95;0.70;;;;;;;;;;5008203;28;20079;-75
2021/05/20 10:59:00;;;;;;;4.07;2.25;;;;;;;;;;5001592;28;20129;-75
2021/05/20 11:01:27;;;;;;;5.00;0.98;;;;;;;;;;4996171;28;20125;-76
2021/05/20 11:03:57;;;;;;;5.20;0.90;;;;;;;;;;5021903;28;20030;-76
2021/05/20 11:06:38;;;;;;;1.35;0.75;;;;;;;;;;5001544;28;20034;-76
2021/05/20 11:09:11;;;;;;;2.10;0.80;;;;;;;;;;5004124;28;20029;-75
2021/05/20 11:11:39;;;;;;;0.75;0.70;;;;;;;;;;5008671;28;20030;-76
2021/05/20 11:14:27;;;;;;;2.05;0.80;;;;;;;;;;4998365;28;20085;-75
2021/05/20 11:16:56;;;;;;;0.80;0.80;;;;;;;;;;5016583;28;20049;-75
2021/05/20 11:19:25;;;;;;;2.25;1.00;;;;;;;;;;4995285;28;20077;-75
2021/05/20 11:21:57;;;;;;;4.53;1.77;;;;;;;;;;4998687;28;20038;-74
2021/05/20 11:24:25;;;;;;;;;;;;;;;;;;5006216;28;20035;-75
2021/05/20 11:27:04;;;;;;;2.22;1.02;;;;;;;;;;5010149;28;19936;-74
2021/05/20 11:29:37;;;;;;;1.85;1.10;;;;;;;;;;5015412;28;20034;-74
2021/05/20 11:32:26;;;;;;;1.33;0.93;;;;;;;;;;4992209;28;20446;-75
2021/05/20 11:37:38;;;;;;;1.33;1.00;;;;;;;;;;4993211;28;20148;-75
2021/05/20 11:40:06;;;;;;;6.20;1.50;;;;;;;;;;4996878;28;20045;-74
2021/05/20 11:42:33;;;;;;;1.67;1.23;;;;;;;;;;4992557;28;20042;-75
2021/05/20 11:45:05;;;;;;;2.95;1.60;;;;;;;;;;5001418;28;20115;-75
2021/05/20 11:47:31;;;;;;;1.42;0.90;;;;;;;;;;5006386;28;20761;-73
2021/05/20 11:49:57;;;;;;;2.30;1.05;;;;;;;;;;5014528;28;20033;-75
2021/05/20 11:52:25;;;;;;;3.60;1.20;;;;;;;;;;4982357;28;20423;-75
2021/05/20 11:54:55;;;;;;;3.85;1.70;;;;;;;;;;5006509;28;20104;-75
2021/05/20 11:57:23;;;;;;;1.70;1.60;;;;;;;;;;4982153;28;20042;-77
2021/05/20 11:59:53;;;;;;;3.17;1.40;;;;;;;;;;4998252;28;20143;-75
2021/05/20 12:02:26;;;;;;;4.13;1.33;;;;;;;;;;5001632;28;20037;-74
2021/05/20 12:05:09;;;;;;;2.22;1.25;;;;;;;;;;5023980;28;20042;-74
2021/05/20 12:07:39;;;;;;;2.30;1.10;;;;;;;;;;4994681;28;20042;-74
2021/05/20 12:10:21;;;;;;;4.75;1.52;;;;;;;;;;4998215;28;20045;-75
2021/05/20 12:12:55;;;;;;;3.03;1.50;;;;;;;;;;4995887;28;20087;-76
2021/05/20 12:15:23;;;;;;;3.95;1.38;;;;;;;;;;5000429;28;20045;-75
2021/05/20 12:17:49;;;;;;;6.32;1.27;;;;;;;;;;5000435;28;20121;-73
2021/05/20 12:20:17;;;;;;;1.23;1.13;;;;;;;;;;5011506;28;20021;-75
2021/05/20 12:22:45;;;;;;;2.70;1.40;;;;;;;;;;5002094;28;20038;-74
2021/05/20 12:25:22;;;;;;;8.20;1.88;;;;;;;;;;4992216;28;20481;-78
2021/05/20 12:27:51;;;;;;;2.00;1.30;;;;;;;;;;5008777;28;20125;-76
2021/05/20 12:30:18;;;;;;;6.50;1.52;;;;;;;;;;5008581;28;20057;-75
2021/05/20 12:32:45;;;;;;;1.17;1.05;;;;;;;;;;5014225;28;20022;-74
2021/05/20 12:35:27;;;;;;;2.38;1.50;;;;;;;;;;4993262;28;20029;-75
2021/05/20 12:38:09;;;;;;;;;;;;;;;;;;4995139;28;20058;-76
2021/05/20 12:40:42;;;;;;;2.45;1.10;;;;;;;;;;5007817;28;19953;-75
2021/05/20 12:43:17;;;;;;;1.77;0.90;;;;;;;;;;4995325;28;20026;-73
2021/05/20 12:45:45;;;;;;;14.20;2.28;;;;;;;;;;4994220;28;20153;-75
2021/05/20 12:48:22;;;;;;;3.13;1.10;;;;;;;;;;4992823;28;20398;-76
2021/05/20 12:50:48;;;;;;;2.90;1.25;;;;;;;;;;4996785;28;20030;-75
2021/05/20 12:53:35;;;;;;;5.45;1.48;;;;;;;;;;4999010;28;20022;-74
2021/05/20 12:56:04;;;;;;;3.55;0.85;;;;;;;;;;5001700;28;20038;-74
2021/05/20 12:59:03;;;;;;;0.70;0.70;;;;;;;;;;4999121;28;20100;-75
2021/05/20 13:02:05;;;;;;;0.80;0.80;;;;;;;;;;5010222;28;20167;-75
2021/05/20 13:04:32;;;;;;;;;;;;;;;;;;5017026;28;20068;-75
2021/05/20 13:07:09;;;;;;;2.85;1.70;;;;;;;;;;4999917;28;19924;-76
2021/05/20 13:09:45;;;;;;;5.40;1.52;;;;;;;;;;5005909;28;20172;-74
2021/05/20 13:12:18;;;;;;;0.88;0.82;;;;;;;;;;5005943;28;20030;-75
2021/05/20 13:15:04;;;;;;;2.70;0.70;;;;;;;;;;4999135;28;20053;-74
2021/05/20 13:22:53;;;;;;;2.67;0.90;;;;;;;;;;5001507;28;20101;-75
2021/05/20 13:25:21;;;;;;;1.17;1.00;;;;;;;;;;5000993;28;20034;-74
2021/05/20 13:27:49;;;;;;;2.40;1.00;;;;;;;;;;5001936;28;20041;-76
2021/05/20 13:30:27;;;;;;;2.28;1.00;;;;;;;;;;4999669;28;20549;-76
2021/05/20 13:32:58;;;;;;;0.90;0.90;;;;;;;;;;5004204;28;20430;-75
2021/05/20 13:35:25;;;;;;;4.75;2.08;;;;;;;;;;5001921;28;20096;-76
2021/05/20 13:37:51;;;;;;;3.53;1.27;;;;;;;;;;5009682;28;20516;-75
2021/05/20 13:40:29;;;;;;;6.25;1.95;;;;;;;;;;4994124;28;20491;-75
2021/05/20 13:42:56;;;;;;;1.73;0.90;;;;;;;;;;5010155;28;20064;-76
2021/05/20 13:45:25;;;;;;;1.70;1.08;;;;;;;;;;5000365;28;20026;-75
2021/05/20 13:47:52;;;;;;;2.15;1.95;;;;;;;;;;4998200;28;20052;-75
2021/05/20 13:50:18;;;;;;;9.60;1.42;;;;;;;;;;5006015;28;20112;-75
2021/05/20 13:52:44;;;;;;;1.50;0.85;;;;;;;;;;5006096;28;20049;-75
2021/05/20 13:55:12;;;;;;;2.72;1.25;;;;;;;;;;5006401;28;20033;-76
2021/05/20 13:57:38;;;;;;;3.72;0.93;;;;;;;;;;5012156;28;20685;-75
2021/05/20 14:00:09;;;;;;;5.00;2.47;;;;;;;;;;4992272;28;20038;-75
2021/05/20 14:02:35;;;;;;;4.07;1.05;;;;;;;;;;4996088;28;20500;-75
2021/05/20 14:05:03;;;;;;;1.55;1.17;;;;;;;;;;5009267;28;20026;-76
2021/05/20 14:07:28;;;;;;;3.40;1.30;;;;;;;;;;4991650;28;20034;-74
2021/05/20 14:09:55;;;;;;;1.13;0.77;;;;;;;;;;5002144;28;20160;-78
2021/05/20 14:12:22;;;;;;;3.20;1.33;;;;;;;;;;5004669;28;20029;-76
2021/05/20 14:14:48;;;;;;;3.33;0.90;;;;;;;;;;4995870;28;20045;-78
2021/05/20 14:17:22;;;;;;;2.53;1.10;;;;;;;;;;4995884;28;20042;-77
2021/05/20 14:19:53;;;;;;;1.90;1.10;;;;;;;;;;5003302;28;20678;-77
2021/05/20 14:22:19;;;;;;;3.15;1.27;;;;;;;;;;5001416;28;20326;-77
2021/05/20 14:24:49;;;;;;;3.90;1.20;;;;;;;;;;5000249;28;20261;-77
2021/05/20 14:27:16;;;;;;;1.60;1.40;;;;;;;;;;5003416;28;20151;-77
2021/05/20 14:29:42;;;;;;;4.97;1.15;;;;;;;;;;5010395;28;20085;-76
2021/05/20 14:32:08;;;;;;;2.17;1.23;;;;;;;;;;4987699;28;20034;-76
2021/05/20 14:34:34;;;;;;;1.92;1.27;;;;;;;;;;4993657;28;20034;-77
2021/05/20 14:37:00;;;;;;;1.15;1.00;;;;;;;;;;5003604;28;20532;-72
2021/05/20 14:39:25;;;;;;;1.10;1.00;;;;;;;;;;5008220;28;20141;-75
2021/05/20 14:41:51;;;;;;;2.92;1.13;;;;;;;;;;4987088;28;20041;-78
2021/05/20 14:44:17;;;;;;;1.75;0.88;;;;;;;;;;5003460;28;20116;-78
2021/05/20 14:46:42;;;;;;;1.98;1.52;;;;;;;;;;5019291;28;20105;-77
2021/05/20 14:49:11;;;;;;;2.92;1.10;;;;;;;;;;5009060;28;20045;-75
2021/05/20 14:51:43;;;;;;;1.13;0.80;;;;;;;;;;5010801;28;20037;-75
2021/05/20 14:56:43;;;;;;;3.72;0.60;;;;;;;;;;5001698;28;20542;-77
2021/05/20 15:07:29;;;;;;;1.33;0.93;;;;;;;;;;4997263;28;20061;-78
2021/05/20 15:15:17;;;;;;;1.45;0.82;;;;;;;;;;5008196;28;20030;-77
2021/05/20 15:17:58;;;;;;;2.47;1.10;;;;;;;;;;4997526;28;20038;-75
2021/05/20 15:20:26;;;;;;;57.90;6.25;;;;;;;;;;5000604;28;20097;-75